Time;durP1;ratioP1;P1;durP2;ratioP2;P2;SDS_P1;SDS_P2;PMS_P1;PMS_P2;Temp;Humidity;BMP_temperature;BMP_pressure;BME280_temperature;BME280_humidity;BME280_pressure;Samples;Min_cycle;Max_cycle;Signal;HPM_P1;HPM_P2
2022/05/20 00:02:14;;;;;;;12.60;4.90;;;;;;;;;;5029461;28;20207;-69
2022/05/20 00:04:41;;;;;;;11.20;4.83;;;;;;;;;;5030871;28;20277;-68
2022/05/20 00:07:09;;;;;;;10.33;4.63;;;;;;;;;;5030187;28;20302;-69
2022/05/20 00:09:36;;;;;;;13.53;4.67;;;;;;;;;;5010445;28;20218;-68
2022/05/20 00:12:04;;;;;;;10.17;4.90;;;;;;;;;;5029511;28;20337;-68
2022/05/20 00:14:31;;;;;;;13.37;5.10;;;;;;;;;;5030308;28;20524;-69
2022/05/20 00:17:01;;;;;;;9.23;5.03;;;;;;;;;;5030337;28;20192;-68
2022/05/20 00:19:28;;;;;;;14.27;4.87;;;;;;;;;;5031183;28;20194;-69
2022/05/20 00:21:54;;;;;;;9.47;4.87;;;;;;;;;;5030548;28;20195;-68
2022/05/20 00:24:21;;;;;;;10.00;4.93;;;;;;;;;;5031330;28;20237;-68
2022/05/20 00:26:50;;;;;;;8.53;4.63;;;;;;;;;;5028935;28;20198;-68
2022/05/20 00:29:18;;;;;;;10.93;5.30;;;;;;;;;;5028822;28;20358;-69
2022/05/20 00:31:44;;;;;;;13.00;5.03;;;;;;;;;;5030466;28;20210;-68
2022/05/20 00:34:11;;;;;;;7.60;4.70;;;;;;;;;;5029230;28;20191;-68
2022/05/20 00:36:38;;;;;;;10.97;4.90;;;;;;;;;;5012748;28;20191;-68
2022/05/20 00:39:04;;;;;;;9.07;4.93;;;;;;;;;;5030534;28;20247;-68
2022/05/20 00:41:31;;;;;;;9.33;4.77;;;;;;;;;;5023075;28;20689;-68
2022/05/20 00:44:15;;;;;;;7.13;5.00;;;;;;;;;;5029251;28;20333;-68
2022/05/20 00:46:42;;;;;;;12.53;4.40;;;;;;;;;;5029277;28;20195;-68
2022/05/20 00:49:10;;;;;;;7.73;4.23;;;;;;;;;;5028787;28;20219;-68
2022/05/20 00:51:45;;;;;;;6.77;3.90;;;;;;;;;;5029026;28;20658;-68
2022/05/20 00:54:33;;;;;;;5.87;3.53;;;;;;;;;;5029357;28;20183;-68
2022/05/20 00:57:07;;;;;;;6.73;3.80;;;;;;;;;;5026593;28;20188;-68
2022/05/20 00:59:34;;;;;;;7.77;4.23;;;;;;;;;;5029682;28;20188;-68
2022/05/20 01:02:02;;;;;;;8.43;4.00;;;;;;;;;;5028415;28;20625;-68
2022/05/20 01:04:29;;;;;;;8.83;3.63;;;;;;;;;;5023709;28;20196;-68
2022/05/20 01:06:56;;;;;;;6.57;3.60;;;;;;;;;;5010942;28;20631;-68
2022/05/20 01:09:23;;;;;;;5.33;3.63;;;;;;;;;;5031603;28;20222;-68
2022/05/20 01:12:07;;;;;;;8.43;3.00;;;;;;;;;;4997657;28;20317;-68
2022/05/20 01:14:34;;;;;;;7.73;3.63;;;;;;;;;;5029962;28;20186;-69
2022/05/20 01:17:01;;;;;;;5.07;3.10;;;;;;;;;;5028206;28;20215;-69
2022/05/20 01:19:35;;;;;;;8.37;3.67;;;;;;;;;;5028406;28;20184;-68
2022/05/20 01:22:03;;;;;;;5.67;3.10;;;;;;;;;;5027634;28;20245;-69
2022/05/20 01:24:29;;;;;;;7.60;3.00;;;;;;;;;;5029097;28;20223;-69
2022/05/20 01:26:56;;;;;;;8.57;3.47;;;;;;;;;;5011605;28;20194;-68
2022/05/20 01:29:23;;;;;;;6.67;3.30;;;;;;;;;;5029920;28;20217;-69
2022/05/20 01:31:49;;;;;;;5.00;3.20;;;;;;;;;;5003218;28;20188;-68
2022/05/20 01:34:16;;;;;;;9.43;3.20;;;;;;;;;;5026631;28;20188;-69
2022/05/20 01:36:43;;;;;;;4.93;3.20;;;;;;;;;;5014251;28;20671;-68
2022/05/20 01:39:10;;;;;;;6.53;3.30;;;;;;;;;;5028514;28;20702;-69
2022/05/20 01:41:48;;;;;;;6.00;3.30;;;;;;;;;;5028119;28;20249;-68
2022/05/20 01:44:20;;;;;;;4.20;2.90;;;;;;;;;;5005813;28;20240;-69
2022/05/20 01:47:06;;;;;;;7.53;3.03;;;;;;;;;;5007730;28;20195;-68
2022/05/20 01:49:35;;;;;;;5.80;3.13;;;;;;;;;;5028554;28;20215;-68
2022/05/20 01:52:05;;;;;;;6.70;3.47;;;;;;;;;;5027793;28;20202;-68
2022/05/20 01:54:50;;;;;;;4.20;3.17;;;;;;;;;;5027955;28;20721;-69
2022/05/20 01:57:17;;;;;;;6.40;3.20;;;;;;;;;;5027836;28;20278;-69
2022/05/20 01:59:46;;;;;;;6.00;3.13;;;;;;;;;;4983050;28;20234;-69
2022/05/20 02:02:14;;;;;;;4.90;3.10;;;;;;;;;;4997504;28;20184;-69
2022/05/20 02:04:44;;;;;;;5.50;3.27;;;;;;;;;;5015362;28;20627;-69
2022/05/20 02:07:12;;;;;;;7.30;3.30;;;;;;;;;;5008233;28;20188;-69
2022/05/20 02:09:59;;;;;;;5.87;3.37;;;;;;;;;;5015815;28;20216;-68
2022/05/20 02:12:26;;;;;;;3.60;3.10;;;;;;;;;;5005232;28;20297;-68
2022/05/20 02:14:58;;;;;;;4.27;3.10;;;;;;;;;;5021670;28;20192;-68
2022/05/20 02:17:35;;;;;;;7.47;3.60;;;;;;;;;;4972184;28;20216;-68
2022/05/20 02:20:14;;;;;;;4.37;3.17;;;;;;;;;;5001367;28;20198;-68
2022/05/20 02:22:42;;;;;;;8.33;3.53;;;;;;;;;;5024329;28;20774;-68
2022/05/20 02:25:09;;;;;;;5.90;3.50;;;;;;;;;;5009693;28;20198;-68
2022/05/20 02:27:37;;;;;;;8.03;3.07;;;;;;;;;;5009888;28;20191;-68
2022/05/20 02:30:05;;;;;;;5.33;3.20;;;;;;;;;;5008691;28;20219;-68
2022/05/20 02:32:34;;;;;;;7.33;3.30;;;;;;;;;;5005377;28;20275;-68
2022/05/20 02:35:01;;;;;;;4.93;3.70;;;;;;;;;;5027222;28;20625;-68
2022/05/20 02:37:32;;;;;;;6.73;3.53;;;;;;;;;;5014664;28;20699;-69
2022/05/20 02:39:59;;;;;;;5.97;3.30;;;;;;;;;;5025831;28;20241;-68
2022/05/20 02:42:27;;;;;;;6.17;3.53;;;;;;;;;;5028204;28;20180;-67
2022/05/20 02:44:54;;;;;;;6.23;3.43;;;;;;;;;;5027483;28;20205;-66
2022/05/20 02:47:21;;;;;;;5.43;3.07;;;;;;;;;;5020981;28;20195;-68
2022/05/20 02:49:48;;;;;;;6.97;3.43;;;;;;;;;;5022324;28;20215;-68
2022/05/20 02:52:15;;;;;;;7.13;3.33;;;;;;;;;;4989045;28;20218;-67
2022/05/20 02:54:41;;;;;;;7.37;3.47;;;;;;;;;;4999471;28;20279;-68
2022/05/20 02:57:08;;;;;;;7.70;3.70;;;;;;;;;;5007215;28;20245;-67
2022/05/20 03:05:06;;;;;;;6.17;3.53;;;;;;;;;;5025337;28;20195;-67
2022/05/20 03:07:33;;;;;;;9.50;3.53;;;;;;;;;;5026044;28;20188;-67
2022/05/20 03:10:00;;;;;;;10.73;3.70;;;;;;;;;;5023169;28;20256;-67
2022/05/20 03:12:27;;;;;;;7.90;3.70;;;;;;;;;;5027120;28;20194;-67
2022/05/20 03:14:54;;;;;;;5.53;3.73;;;;;;;;;;5026921;28;20202;-67
2022/05/20 03:17:21;;;;;;;8.00;3.60;;;;;;;;;;5026214;28;20603;-67
2022/05/20 03:19:47;;;;;;;5.37;3.50;;;;;;;;;;5020146;28;20187;-67
2022/05/20 03:22:14;;;;;;;7.00;3.87;;;;;;;;;;5026420;28;20194;-67
2022/05/20 03:24:42;;;;;;;7.63;4.30;;;;;;;;;;5026776;28;20203;-69
2022/05/20 03:27:09;;;;;;;4.67;3.90;;;;;;;;;;4971689;28;20652;-67
2022/05/20 03:29:36;;;;;;;5.03;3.60;;;;;;;;;;5019301;28;20276;-67
2022/05/20 03:32:03;;;;;;;9.93;4.20;;;;;;;;;;5025231;28;20283;-68
2022/05/20 03:34:29;;;;;;;5.77;4.40;;;;;;;;;;5024980;28;20681;-68
2022/05/20 03:36:57;;;;;;;9.13;4.67;;;;;;;;;;5027828;28;20188;-67
2022/05/20 03:39:25;;;;;;;7.40;4.40;;;;;;;;;;5027640;28;20350;-67
2022/05/20 03:41:52;;;;;;;8.53;4.50;;;;;;;;;;5026572;28;20192;-67
2022/05/20 03:44:19;;;;;;;5.40;4.20;;;;;;;;;;5009169;28;20322;-67
2022/05/20 03:46:46;;;;;;;5.40;4.27;;;;;;;;;;4994132;28;20227;-67
2022/05/20 03:49:31;;;;;;;9.40;4.23;;;;;;;;;;5025979;28;20186;-67
2022/05/20 03:51:57;;;;;;;9.23;4.10;;;;;;;;;;5025746;28;20191;-68
2022/05/20 03:54:42;;;;;;;5.80;4.10;;;;;;;;;;5021073;28;20262;-68
2022/05/20 03:57:09;;;;;;;6.83;4.10;;;;;;;;;;5027402;28;20191;-68
2022/05/20 03:59:39;;;;;;;6.23;4.03;;;;;;;;;;5004088;28;20255;-68
2022/05/20 04:02:06;;;;;;;9.27;4.20;;;;;;;;;;5008369;28;20249;-67
2022/05/20 04:04:33;;;;;;;6.60;4.40;;;;;;;;;;5024970;28;20237;-68
2022/05/20 04:07:01;;;;;;;6.70;4.00;;;;;;;;;;5019231;28;20287;-67
2022/05/20 04:09:27;;;;;;;4.80;4.30;;;;;;;;;;5025795;28;20219;-67
2022/05/20 04:11:55;;;;;;;10.97;4.70;;;;;;;;;;5006127;28;20426;-67
2022/05/20 04:14:23;;;;;;;7.93;4.83;;;;;;;;;;5008713;28;20263;-67
2022/05/20 04:17:07;;;;;;;4.57;4.00;;;;;;;;;;5013139;28;20188;-67
2022/05/20 04:19:34;;;;;;;7.40;4.40;;;;;;;;;;5020266;28;20578;-67
2022/05/20 04:22:03;;;;;;;7.67;4.47;;;;;;;;;;5025620;28;20230;-67
2022/05/20 04:24:29;;;;;;;7.23;3.87;;;;;;;;;;4989270;28;20688;-67
2022/05/20 04:26:56;;;;;;;4.23;3.83;;;;;;;;;;5028559;28;20662;-67
2022/05/20 04:29:23;;;;;;;5.50;4.40;;;;;;;;;;5027751;28;20520;-67
2022/05/20 04:31:50;;;;;;;6.47;4.30;;;;;;;;;;5030106;28;20590;-67
2022/05/20 04:34:17;;;;;;;7.73;4.10;;;;;;;;;;5008350;28;20180;-67
2022/05/20 04:36:44;;;;;;;8.47;4.30;;;;;;;;;;5009510;28;20195;-67
2022/05/20 04:39:11;;;;;;;11.07;4.57;;;;;;;;;;5027852;28;20250;-67
2022/05/20 04:47:16;;;;;;;4.93;4.30;;;;;;;;;;5028490;28;20688;-67
2022/05/20 04:49:43;;;;;;;5.27;3.83;;;;;;;;;;5020167;28;20693;-66
2022/05/20 04:52:10;;;;;;;5.40;4.20;;;;;;;;;;5010286;28;20291;-66
2022/05/20 04:54:49;;;;;;;5.70;4.10;;;;;;;;;;5010704;28;20263;-66
2022/05/20 04:57:35;;;;;;;6.33;4.50;;;;;;;;;;5011125;28;20180;-66
2022/05/20 05:00:05;;;;;;;8.03;4.30;;;;;;;;;;5003683;28;20200;-66
2022/05/20 05:02:32;;;;;;;5.67;4.70;;;;;;;;;;5021207;28;20192;-66
2022/05/20 05:04:59;;;;;;;5.73;4.03;;;;;;;;;;5020929;28;20222;-67
2022/05/20 05:07:26;;;;;;;6.70;4.30;;;;;;;;;;5028545;28;20188;-66
2022/05/20 05:09:53;;;;;;;5.57;4.47;;;;;;;;;;5015367;28;20194;-66
2022/05/20 05:12:20;;;;;;;6.83;3.93;;;;;;;;;;5007719;28;20234;-67
2022/05/20 05:14:47;;;;;;;4.57;4.00;;;;;;;;;;5000032;28;20830;-67
2022/05/20 05:17:15;;;;;;;6.33;4.10;;;;;;;;;;5010595;28;20559;-67
2022/05/20 05:19:44;;;;;;;5.60;4.00;;;;;;;;;;5022708;28;20242;-67
2022/05/20 05:22:11;;;;;;;8.87;4.43;;;;;;;;;;5029796;28;20210;-67
2022/05/20 05:24:39;;;;;;;7.43;4.40;;;;;;;;;;5009228;28;20184;-66
2022/05/20 05:27:06;;;;;;;6.63;4.00;;;;;;;;;;5010274;28;20207;-66
2022/05/20 05:29:33;;;;;;;9.30;4.30;;;;;;;;;;5007291;28;20275;-66
2022/05/20 05:32:00;;;;;;;6.83;4.00;;;;;;;;;;5008029;28;20257;-67
2022/05/20 05:34:27;;;;;;;5.07;3.73;;;;;;;;;;5004572;28;20200;-66
2022/05/20 05:36:53;;;;;;;3.77;3.37;;;;;;;;;;4984199;28;20224;-67
2022/05/20 05:39:21;;;;;;;6.40;3.60;;;;;;;;;;4996381;28;20320;-66
2022/05/20 05:41:48;;;;;;;7.03;3.83;;;;;;;;;;5000742;28;20800;-67
2022/05/20 05:44:15;;;;;;;5.83;3.40;;;;;;;;;;5009636;28;20219;-66
2022/05/20 05:46:41;;;;;;;7.10;3.17;;;;;;;;;;5009496;28;20254;-66
2022/05/20 05:49:09;;;;;;;5.40;2.90;;;;;;;;;;5008914;28;20188;-66
2022/05/20 05:51:36;;;;;;;4.00;2.80;;;;;;;;;;5007951;28;20331;-66
2022/05/20 05:54:03;;;;;;;7.37;3.60;;;;;;;;;;4994240;28;20678;-66
2022/05/20 05:56:29;;;;;;;7.23;3.70;;;;;;;;;;5011800;28;20192;-66
2022/05/20 05:58:57;;;;;;;6.00;3.50;;;;;;;;;;5002428;28;20192;-66
2022/05/20 06:01:24;;;;;;;4.43;3.20;;;;;;;;;;5011955;28;21034;-66
2022/05/20 06:03:51;;;;;;;6.77;3.40;;;;;;;;;;5016888;28;20196;-67
2022/05/20 06:06:18;;;;;;;9.00;3.20;;;;;;;;;;5008864;28;20188;-67
2022/05/20 06:08:45;;;;;;;5.30;3.30;;;;;;;;;;5007332;28;20215;-67
2022/05/20 06:11:13;;;;;;;4.47;2.97;;;;;;;;;;5008149;28;20215;-67
2022/05/20 06:13:40;;;;;;;5.67;2.97;;;;;;;;;;5008010;28;20188;-67
2022/05/20 06:16:07;;;;;;;5.47;3.03;;;;;;;;;;5008447;28;20192;-67
2022/05/20 06:18:40;;;;;;;8.90;4.40;;;;;;;;;;5009197;28;20626;-66
2022/05/20 06:21:07;;;;;;;8.13;5.00;;;;;;;;;;5008849;28;20659;-66
2022/05/20 06:23:34;;;;;;;12.33;5.50;;;;;;;;;;5009412;28;20199;-66
2022/05/20 06:26:01;;;;;;;6.87;4.90;;;;;;;;;;5007523;28;20192;-66
2022/05/20 06:28:44;;;;;;;9.37;4.97;;;;;;;;;;4990134;28;20195;-67
2022/05/20 06:31:11;;;;;;;11.40;6.30;;;;;;;;;;4995949;28;20211;-66
2022/05/20 06:33:38;;;;;;;11.67;6.97;;;;;;;;;;5009207;28;20195;-67
2022/05/20 06:41:36;;;;;;;11.37;8.50;;;;;;;;;;5026992;28;20195;-66
2022/05/20 06:44:03;;;;;;;15.27;8.83;;;;;;;;;;5011860;28;20195;-67
2022/05/20 06:46:30;;;;;;;11.70;8.17;;;;;;;;;;5028830;28;20214;-67
2022/05/20 06:48:59;;;;;;;17.20;8.43;;;;;;;;;;5023108;28;20229;-66
2022/05/20 06:51:36;;;;;;;17.70;10.10;;;;;;;;;;5028957;28;20223;-66
2022/05/20 06:54:04;;;;;;;18.07;9.43;;;;;;;;;;5010678;28;20210;-66
2022/05/20 06:56:31;;;;;;;13.23;9.70;;;;;;;;;;5010147;28;20211;-66
2022/05/20 06:58:58;;;;;;;18.27;10.03;;;;;;;;;;5028342;28;20299;-66
2022/05/20 07:01:25;;;;;;;17.07;10.87;;;;;;;;;;5011078;28;20203;-66
2022/05/20 07:03:53;;;;;;;13.63;10.27;;;;;;;;;;5029887;28;20188;-66
2022/05/20 07:06:20;;;;;;;15.97;11.17;;;;;;;;;;5030792;28;20191;-67
2022/05/20 07:08:50;;;;;;;21.43;12.90;;;;;;;;;;5027870;28;20199;-66
2022/05/20 07:11:35;;;;;;;20.73;13.63;;;;;;;;;;5028118;28;20701;-66
2022/05/20 07:14:02;;;;;;;19.13;13.80;;;;;;;;;;5028040;28;20194;-66
2022/05/20 07:16:30;;;;;;;18.40;13.03;;;;;;;;;;5028045;28;20207;-66
2022/05/20 07:18:56;;;;;;;17.00;13.57;;;;;;;;;;5009642;28;20218;-66
2022/05/20 07:21:23;;;;;;;17.57;13.17;;;;;;;;;;5027784;28;20550;-66
2022/05/20 07:23:50;;;;;;;27.97;13.57;;;;;;;;;;5027627;28;20199;-67
2022/05/20 07:26:18;;;;;;;20.17;14.00;;;;;;;;;;5028149;28;20369;-66
2022/05/20 07:28:45;;;;;;;19.57;14.70;;;;;;;;;;5028106;28;20583;-67
2022/05/20 07:31:12;;;;;;;19.13;14.83;;;;;;;;;;5010278;28;20277;-66
2022/05/20 07:33:56;;;;;;;20.03;15.33;;;;;;;;;;5027147;28;20270;-66
2022/05/20 07:36:22;;;;;;;23.97;17.17;;;;;;;;;;5027611;28;20195;-66
2022/05/20 07:38:50;;;;;;;21.80;15.23;;;;;;;;;;5027373;28;20659;-66
2022/05/20 07:41:17;;;;;;;20.73;15.67;;;;;;;;;;5028002;28;20198;-66
2022/05/20 07:43:44;;;;;;;18.30;15.40;;;;;;;;;;5042759;28;20189;-66
2022/05/20 07:46:11;;;;;;;21.07;16.33;;;;;;;;;;5047793;28;20195;-66
2022/05/20 07:48:37;;;;;;;24.50;17.27;;;;;;;;;;5047617;28;20245;-67
2022/05/20 07:51:11;;;;;;;26.00;18.23;;;;;;;;;;5018586;28;20238;-66
2022/05/20 07:53:39;;;;;;;25.30;17.00;;;;;;;;;;5007978;28;20192;-66
2022/05/20 07:56:13;;;;;;;26.47;16.63;;;;;;;;;;5007846;28;20192;-66
2022/05/20 07:58:41;;;;;;;30.50;18.03;;;;;;;;;;5008522;28;20187;-67
2022/05/20 08:01:17;;;;;;;26.27;18.17;;;;;;;;;;4995670;28;20286;-66
2022/05/20 08:06:29;;;;;;;21.13;16.90;;;;;;;;;;5021865;28;20191;-67
2022/05/20 08:08:56;;;;;;;22.27;16.60;;;;;;;;;;5013982;28;20188;-66
2022/05/20 08:11:23;;;;;;;23.73;17.33;;;;;;;;;;5031073;28;20239;-66
2022/05/20 08:13:50;;;;;;;24.93;17.60;;;;;;;;;;5031594;28;20230;-66
2022/05/20 08:16:18;;;;;;;21.20;14.00;;;;;;;;;;5031484;28;20195;-66
2022/05/20 08:18:45;;;;;;;25.83;17.00;;;;;;;;;;5030942;28;20294;-66
2022/05/20 08:21:12;;;;;;;20.43;13.60;;;;;;;;;;5029013;28;20195;-66
2022/05/20 08:23:39;;;;;;;21.60;16.83;;;;;;;;;;5011328;28;20211;-66
2022/05/20 08:26:05;;;;;;;22.77;16.10;;;;;;;;;;5011479;28;20798;-66
2022/05/20 08:28:32;;;;;;;20.40;16.83;;;;;;;;;;5011655;28;20283;-66
2022/05/20 08:30:59;;;;;;;18.80;14.77;;;;;;;;;;5011422;28;20238;-66
2022/05/20 08:33:26;;;;;;;19.13;15.43;;;;;;;;;;5011179;28;20192;-65
2022/05/20 08:35:53;;;;;;;19.90;14.90;;;;;;;;;;5011514;28;20196;-65
2022/05/20 08:38:21;;;;;;;18.77;14.00;;;;;;;;;;5010372;28;20192;-66
2022/05/20 08:40:49;;;;;;;19.23;13.63;;;;;;;;;;5011552;28;20207;-65
2022/05/20 08:43:18;;;;;;;22.43;13.10;;;;;;;;;;5033361;28;20535;-66
2022/05/20 08:45:45;;;;;;;18.03;12.47;;;;;;;;;;5050586;28;20680;-66
2022/05/20 08:48:11;;;;;;;17.07;12.83;;;;;;;;;;5050773;28;20191;-66
2022/05/20 08:50:47;;;;;;;30.10;13.03;;;;;;;;;;5049343;28;20187;-66
2022/05/20 08:53:20;;;;;;;16.57;11.73;;;;;;;;;;5050484;28;20190;-65
2022/05/20 08:55:47;;;;;;;12.70;11.07;;;;;;;;;;5031530;28;20255;-66
2022/05/20 08:58:23;;;;;;;17.67;11.37;;;;;;;;;;5010873;28;20291;-67
2022/05/20 09:00:49;;;;;;;15.13;10.57;;;;;;;;;;5010613;28;20194;-65
2022/05/20 09:03:16;;;;;;;14.50;9.80;;;;;;;;;;4993632;28;20196;-65
2022/05/20 09:05:44;;;;;;;14.00;10.63;;;;;;;;;;5009953;28;20278;-66
2022/05/20 09:08:24;;;;;;;13.73;10.70;;;;;;;;;;5010326;28;20605;-65
2022/05/20 09:10:53;;;;;;;12.83;9.67;;;;;;;;;;5009543;28;20192;-66
2022/05/20 09:15:43;;;;;;;14.30;9.53;;;;;;;;;;5010644;28;20273;-65
2022/05/20 09:16:12;;;;;;;13.80;9.83;;;;;;;;;;5010541;28;20184;-65
2022/05/20 09:18:43;;;;;;;14.60;9.30;;;;;;;;;;5010233;28;20315;-66
2022/05/20 09:21:32;;;;;;;12.43;8.23;;;;;;;;;;5017263;28;20188;-66
2022/05/20 09:24:01;;;;;;;12.30;7.97;;;;;;;;;;5013084;28;20186;-65
2022/05/20 09:26:32;;;;;;;13.57;7.67;;;;;;;;;;5029966;28;20614;-66
2022/05/20 09:29:04;;;;;;;10.13;7.80;;;;;;;;;;5030021;28;20198;-66
2022/05/20 09:31:52;;;;;;;11.90;7.00;;;;;;;;;;5030281;28;20262;-64
2022/05/20 09:34:25;;;;;;;11.23;6.50;;;;;;;;;;5012871;28;20961;-65
2022/05/20 09:36:57;;;;;;;8.27;5.80;;;;;;;;;;5020263;28;20200;-65
2022/05/20 09:39:31;;;;;;;8.43;5.47;;;;;;;;;;5009639;28;20224;-66
2022/05/20 09:41:58;;;;;;;8.67;5.70;;;;;;;;;;5010491;28;20188;-65
2022/05/20 09:44:25;;;;;;;12.83;6.07;;;;;;;;;;5008990;28;20180;-65
2022/05/20 09:46:54;;;;;;;6.27;5.07;;;;;;;;;;5011679;28;20198;-64
2022/05/20 09:49:43;;;;;;;8.67;5.40;;;;;;;;;;5006934;28;20191;-64
2022/05/20 09:52:29;;;;;;;6.43;4.90;;;;;;;;;;5028223;28;20368;-64
2022/05/20 09:55:01;;;;;;;7.53;5.20;;;;;;;;;;5029827;28;20697;-65
2022/05/20 09:57:29;;;;;;;11.37;5.93;;;;;;;;;;5011825;28;20194;-66
2022/05/20 10:00:07;;;;;;;11.40;5.87;;;;;;;;;;5012051;28;20192;-66
2022/05/20 10:02:42;;;;;;;8.07;5.30;;;;;;;;;;5029308;28;20854;-65
2022/05/20 10:05:15;;;;;;;8.13;5.97;;;;;;;;;;5029268;28;20710;-66
2022/05/20 10:07:48;;;;;;;10.03;6.10;;;;;;;;;;5026384;28;20690;-65
2022/05/20 10:10:33;;;;;;;8.00;6.33;;;;;;;;;;5009758;28;20192;-64
2022/05/20 10:13:20;;;;;;;9.30;6.80;;;;;;;;;;5009754;28;20208;-65
2022/05/20 10:15:47;;;;;;;8.47;6.33;;;;;;;;;;5009300;28;20192;-64
2022/05/20 10:18:14;;;;;;;10.67;7.07;;;;;;;;;;5008422;28;20200;-64
2022/05/20 10:20:44;;;;;;;11.80;6.93;;;;;;;;;;5009127;28;20215;-64
2022/05/20 10:23:30;;;;;;;7.70;5.80;;;;;;;;;;4991551;28;20219;-65
2022/05/20 10:25:58;;;;;;;18.77;8.03;;;;;;;;;;5009243;28;20199;-64
2022/05/20 10:34:09;;;;;;;13.30;7.80;;;;;;;;;;5008571;28;20200;-65
2022/05/20 10:36:54;;;;;;;10.77;7.63;;;;;;;;;;5008949;28;20188;-65
2022/05/20 10:39:21;;;;;;;10.10;7.50;;;;;;;;;;5007205;28;20220;-64
2022/05/20 10:42:16;;;;;;;11.30;8.37;;;;;;;;;;5025634;28;20551;-64
2022/05/20 10:50:23;;;;;;;13.10;9.00;;;;;;;;;;5048321;28;20221;-65
2022/05/20 10:53:07;;;;;;;12.27;9.90;;;;;;;;;;5048246;28;20222;-65
2022/05/20 10:55:35;;;;;;;14.23;10.20;;;;;;;;;;5031147;28;20226;-64
2022/05/20 10:58:25;;;;;;;10.37;8.40;;;;;;;;;;5043150;28;20198;-64
2022/05/20 11:00:53;;;;;;;16.57;9.40;;;;;;;;;;5028493;28;20567;-64
2022/05/20 11:03:23;;;;;;;13.47;9.20;;;;;;;;;;4994326;28;20192;-65
2022/05/20 11:06:19;;;;;;;14.90;9.83;;;;;;;;;;5008538;28;20180;-64
2022/05/20 11:08:46;;;;;;;15.53;9.90;;;;;;;;;;4971903;28;20229;-64
2022/05/20 11:11:33;;;;;;;13.20;9.93;;;;;;;;;;5007173;28;20229;-65
2022/05/20 11:14:00;;;;;;;17.30;9.67;;;;;;;;;;5008242;28;20282;-65
2022/05/20 11:16:28;;;;;;;14.27;8.27;;;;;;;;;;5008899;28;20202;-64
2022/05/20 11:19:02;;;;;;;12.13;8.77;;;;;;;;;;5013943;28;20191;-64
2022/05/20 11:21:33;;;;;;;22.60;9.53;;;;;;;;;;5010569;28;20219;-65
2022/05/20 11:24:12;;;;;;;15.53;9.47;;;;;;;;;;5010462;28;20215;-65
2022/05/20 11:26:58;;;;;;;11.57;9.20;;;;;;;;;;5028309;28;20682;-65
2022/05/20 11:29:32;;;;;;;15.17;10.23;;;;;;;;;;5027855;28;20188;-65
2022/05/20 11:32:07;;;;;;;17.30;10.30;;;;;;;;;;5028206;28;20215;-65
2022/05/20 11:34:43;;;;;;;20.60;11.30;;;;;;;;;;5031123;28;20530;-64
2022/05/20 11:37:15;;;;;;;16.90;10.67;;;;;;;;;;5034460;28;20214;-64
2022/05/20 11:40:03;;;;;;;15.47;12.23;;;;;;;;;;5034328;28;20605;-65
2022/05/20 11:42:49;;;;;;;14.00;10.63;;;;;;;;;;5018710;28;20661;-64
2022/05/20 11:45:25;;;;;;;17.63;11.80;;;;;;;;;;5054400;28;21007;-64
2022/05/20 11:47:52;;;;;;;18.80;9.83;;;;;;;;;;5054524;28;20179;-64
2022/05/20 11:50:22;;;;;;;21.73;10.63;;;;;;;;;;5054278;28;20727;-66
2022/05/20 11:52:49;;;;;;;22.63;11.67;;;;;;;;;;5042717;28;20289;-65
2022/05/20 11:55:20;;;;;;;18.23;11.00;;;;;;;;;;5034456;28;20215;-66
2022/05/20 11:57:54;;;;;;;15.50;11.77;;;;;;;;;;5016416;28;20281;-65
2022/05/20 12:00:21;;;;;;;18.00;13.73;;;;;;;;;;5034289;28;20622;-64
2022/05/20 12:02:53;;;;;;;19.50;13.40;;;;;;;;;;5034587;28;20187;-64
2022/05/20 12:05:24;;;;;;;24.00;15.47;;;;;;;;;;5034250;28;20184;-64
2022/05/20 12:07:51;;;;;;;17.37;10.53;;;;;;;;;;5034153;28;20198;-64
2022/05/20 12:10:38;;;;;;;11.33;8.83;;;;;;;;;;5000057;28;20555;-65
2022/05/20 12:13:08;;;;;;;9.53;6.27;;;;;;;;;;5014157;28;20224;-65
2022/05/20 12:15:36;;;;;;;9.33;6.80;;;;;;;;;;5014557;28;20223;-66
2022/05/20 12:24:12;;;;;;;8.10;6.43;;;;;;;;;;4999389;28;20250;-64
2022/05/20 12:26:43;;;;;;;8.40;6.13;;;;;;;;;;5013501;28;20685;-64
2022/05/20 12:29:29;;;;;;;8.80;6.53;;;;;;;;;;5033758;28;20195;-66
2022/05/20 12:31:55;;;;;;;15.10;5.73;;;;;;;;;;5034180;28;20211;-66
2022/05/20 12:34:41;;;;;;;7.40;4.40;;;;;;;;;;5034052;28;20215;-66
2022/05/20 12:37:08;;;;;;;4.97;4.07;;;;;;;;;;5033580;28;20993;-67
2022/05/20 12:39:52;;;;;;;5.57;4.17;;;;;;;;;;5033892;28;20230;-66
2022/05/20 12:42:21;;;;;;;7.37;3.67;;;;;;;;;;5033818;28;20206;-66
2022/05/20 12:44:48;;;;;;;6.20;3.67;;;;;;;;;;5033384;28;20215;-66
2022/05/20 12:47:24;;;;;;;7.47;3.60;;;;;;;;;;5030925;28;20187;-66
2022/05/20 12:50:03;;;;;;;4.23;3.03;;;;;;;;;;5031074;28;20609;-65
2022/05/20 12:52:31;;;;;;;5.60;4.10;;;;;;;;;;5030680;28;20239;-65
2022/05/20 12:55:19;;;;;;;5.13;3.40;;;;;;;;;;5030434;28;20658;-65
2022/05/20 12:57:51;;;;;;;3.77;2.80;;;;;;;;;;5023642;28;20204;-65
2022/05/20 13:00:24;;;;;;;7.73;3.27;;;;;;;;;;5030562;28;20281;-65
2022/05/20 13:03:10;;;;;;;3.33;2.63;;;;;;;;;;5030387;28;20229;-65
2022/05/20 13:05:38;;;;;;;8.87;3.20;;;;;;;;;;5030495;28;20199;-64
2022/05/20 13:08:10;;;;;;;4.33;3.13;;;;;;;;;;5030128;28;20682;-64
2022/05/20 13:10:37;;;;;;;4.97;2.77;;;;;;;;;;5029475;28;20658;-64
2022/05/20 13:13:07;;;;;;;4.93;2.83;;;;;;;;;;5029373;28;20221;-66
2022/05/20 13:15:44;;;;;;;3.77;2.60;;;;;;;;;;5013194;28;20207;-65
2022/05/20 13:18:26;;;;;;;3.87;2.73;;;;;;;;;;5030250;28;20565;-64
2022/05/20 13:20:58;;;;;;;6.10;2.87;;;;;;;;;;5030012;28;20195;-65
2022/05/20 13:23:28;;;;;;;4.27;2.87;;;;;;;;;;5012092;28;20218;-64
2022/05/20 13:25:55;;;;;;;3.47;2.30;;;;;;;;;;5030040;28;20199;-64
2022/05/20 13:28:25;;;;;;;4.17;2.40;;;;;;;;;;5012616;28;20633;-64
2022/05/20 13:31:09;;;;;;;4.20;2.43;;;;;;;;;;5029102;28;20338;-64
2022/05/20 13:33:53;;;;;;;6.20;2.20;;;;;;;;;;5029981;28;20211;-65
2022/05/20 13:36:22;;;;;;;4.10;2.50;;;;;;;;;;5029732;28;20187;-64
2022/05/20 13:38:50;;;;;;;6.47;2.40;;;;;;;;;;5029389;28;20253;-64
2022/05/20 13:41:21;;;;;;;5.67;2.10;;;;;;;;;;5029802;28;20598;-64
2022/05/20 13:43:47;;;;;;;7.47;2.37;;;;;;;;;;5045206;28;20286;-64
2022/05/20 13:49:13;;;;;;;4.40;2.27;;;;;;;;;;4995343;28;20998;-64
2022/05/20 13:51:45;;;;;;;4.27;2.30;;;;;;;;;;5008585;28;20590;-64
2022/05/20 13:54:18;;;;;;;8.63;2.70;;;;;;;;;;4992257;28;20211;-64
2022/05/20 13:57:02;;;;;;;5.40;2.50;;;;;;;;;;5020856;28;20186;-65
2022/05/20 13:59:35;;;;;;;5.63;2.63;;;;;;;;;;5011945;28;20191;-64
2022/05/20 14:02:09;;;;;;;4.40;2.30;;;;;;;;;;5011600;28;20215;-65
2022/05/20 14:04:45;;;;;;;13.47;3.13;;;;;;;;;;5029761;28;20291;-64
2022/05/20 14:07:29;;;;;;;5.53;2.60;;;;;;;;;;5029562;28;20171;-65
2022/05/20 14:10:00;;;;;;;5.63;3.10;;;;;;;;;;5029700;28;20780;-65
2022/05/20 14:12:30;;;;;;;6.47;3.63;;;;;;;;;;5010839;28;20721;-64
2022/05/20 14:14:58;;;;;;;6.70;3.40;;;;;;;;;;5012220;28;20186;-66
2022/05/20 14:17:25;;;;;;;5.63;3.50;;;;;;;;;;5028241;28;20828;-65
2022/05/20 14:20:12;;;;;;;9.77;3.70;;;;;;;;;;5009698;28;20284;-65
2022/05/20 14:22:39;;;;;;;7.07;3.70;;;;;;;;;;5009466;28;20188;-65
2022/05/20 14:25:15;;;;;;;9.03;3.57;;;;;;;;;;4991883;28;20198;-64
2022/05/20 14:27:43;;;;;;;5.57;3.67;;;;;;;;;;4991685;28;20195;-64
2022/05/20 14:30:14;;;;;;;5.80;3.27;;;;;;;;;;5009138;28;20227;-64
2022/05/20 14:32:41;;;;;;;6.00;3.83;;;;;;;;;;5008872;28;20571;-65
2022/05/20 14:35:08;;;;;;;7.63;3.40;;;;;;;;;;5023293;28;20205;-66
2022/05/20 14:37:35;;;;;;;18.23;4.50;;;;;;;;;;5011408;28;20198;-64
2022/05/20 14:40:04;;;;;;;9.60;3.83;;;;;;;;;;5021497;28;20227;-65
2022/05/20 14:42:32;;;;;;;6.97;3.90;;;;;;;;;;5027249;28;20195;-64
2022/05/20 14:45:07;;;;;;;5.13;4.00;;;;;;;;;;5006908;28;20191;-66
2022/05/20 14:47:52;;;;;;;6.67;4.10;;;;;;;;;;5008954;28;20540;-55
2022/05/20 14:50:19;;;;;;;10.90;4.20;;;;;;;;;;4997064;28;20184;-57
2022/05/20 14:53:03;;;;;;;5.53;3.97;;;;;;;;;;5024522;28;20862;-56
2022/05/20 14:55:39;;;;;;;4.13;3.70;;;;;;;;;;5028920;28;20559;-56
2022/05/20 14:58:10;;;;;;;4.80;4.10;;;;;;;;;;5026451;28;20298;-55
2022/05/20 15:00:50;;;;;;;6.13;4.00;;;;;;;;;;5017591;28;20294;-57
2022/05/20 15:03:17;;;;;;;6.37;4.17;;;;;;;;;;5026119;28;20198;-57
2022/05/20 15:05:44;;;;;;;4.73;3.50;;;;;;;;;;5020876;28;20191;-57
2022/05/20 15:08:12;;;;;;;6.80;4.60;;;;;;;;;;5026519;28;20197;-57
2022/05/20 15:10:57;;;;;;;4.87;4.37;;;;;;;;;;5028213;28;20225;-57
2022/05/20 15:13:24;;;;;;;11.67;4.83;;;;;;;;;;5017798;28;20215;-57
2022/05/20 15:15:51;;;;;;;6.00;4.70;;;;;;;;;;5009663;28;20269;-59
2022/05/20 15:18:19;;;;;;;8.87;4.30;;;;;;;;;;5021606;28;20194;-58
2022/05/20 15:20:49;;;;;;;8.60;4.33;;;;;;;;;;5026779;28;20275;-55
2022/05/20 15:23:28;;;;;;;8.73;4.07;;;;;;;;;;5022427;28;20540;-57
2022/05/20 15:25:54;;;;;;;4.30;3.60;;;;;;;;;;5027804;28;20196;-56
2022/05/20 15:37:00;;;;;;;7.37;4.30;;;;;;;;;;5026603;28;20246;-58
2022/05/20 15:39:48;;;;;;;6.40;4.00;;;;;;;;;;5012811;28;20326;-60
2022/05/20 15:42:16;;;;;;;7.53;3.47;;;;;;;;;;5008375;28;20365;-58
2022/05/20 15:44:46;;;;;;;5.07;4.07;;;;;;;;;;5009164;28;20191;-56
2022/05/20 15:47:15;;;;;;;7.13;4.00;;;;;;;;;;5027556;28;20257;-57